Time;durP1;ratioP1;P1;durP2;ratioP2;P2;SDS_P1;SDS_P2;PMS_P1;PMS_P2;Temp;Humidity;BMP_temperature;BMP_pressure;BME280_temperature;BME280_humidity;BME280_pressure;Samples;Min_cycle;Max_cycle;Signal;HPM_P1;HPM_P2
2022/04/14 00:02:13;;;;;;;7.70;4.82;;;;;;;12.21;60.63;101081.38;5029759;27;102564;-48
2022/04/14 00:04:39;;;;;;;7.60;5.30;;;;;;;12.21;60.66;101080.56;5030640;27;102131;-47
2022/04/14 00:07:06;;;;;;;9.02;5.43;;;;;;;12.20;60.59;101085.22;5029186;27;104159;-49
2022/04/14 00:09:41;;;;;;;6.80;5.03;;;;;;;12.20;60.78;101076.22;5029036;27;101975;-49
2022/04/14 00:12:09;;;;;;;9.13;4.95;;;;;;;12.21;60.54;101083.28;5025779;28;101956;-50
2022/04/14 00:14:36;;;;;;;9.25;5.68;;;;;;;12.21;60.66;101084.13;5029516;27;102401;-48
2022/04/14 00:17:22;;;;;;;7.05;5.18;;;;;;;12.20;60.60;101079.75;5030202;27;104202;-47
2022/04/14 00:19:48;;;;;;;8.82;4.65;;;;;;;12.21;60.71;101086.84;5016141;27;102078;-48
2022/04/14 00:22:15;;;;;;;7.38;4.90;;;;;;;12.21;60.79;101075.94;5009735;28;102702;-50
2022/04/14 00:24:41;;;;;;;7.93;5.10;;;;;;;12.20;60.65;101085.22;5010342;28;102620;-49
2022/04/14 00:27:10;;;;;;;7.57;5.13;;;;;;;12.20;60.54;101085.22;5023709;28;103843;-49
2022/04/14 00:29:38;;;;;;;7.10;5.00;;;;;;;12.19;60.82;101078.13;5023029;27;102753;-48
2022/04/14 00:32:05;;;;;;;6.97;4.80;;;;;;;12.20;60.68;101076.22;5027627;28;102025;-47
2022/04/14 00:34:32;;;;;;;8.02;5.32;;;;;;;12.20;60.80;101085.22;5028434;27;102404;-50
2022/04/14 00:36:59;;;;;;;7.07;5.10;;;;;;;12.20;60.86;101084.41;5010189;28;104000;-50
2022/04/14 00:39:25;;;;;;;7.38;4.85;;;;;;;12.19;60.86;101078.13;5010754;28;102133;-47
2022/04/14 00:41:53;;;;;;;7.65;4.75;;;;;;;12.19;60.49;101089.03;5012304;28;102181;-48
2022/04/14 00:44:20;;;;;;;6.93;5.00;;;;;;;12.21;60.81;101091.47;5028516;27;102869;-48
2022/04/14 00:46:48;;;;;;;8.38;4.82;;;;;;;12.20;60.65;101095.31;5013566;27;103926;-48
2022/04/14 00:49:15;;;;;;;8.70;5.43;;;;;;;12.20;60.82;101089.84;5010500;28;102330;-49
2022/04/14 00:51:42;;;;;;;9.30;5.13;;;;;;;12.20;60.97;101095.31;5010299;28;102270;-47
2022/04/14 00:54:08;;;;;;;8.48;5.63;;;;;;;12.20;60.73;101095.31;5029030;27;102633;-48
2022/04/14 00:56:36;;;;;;;9.38;5.82;;;;;;;12.20;60.81;101085.22;5031834;27;104275;-48
2022/04/14 00:59:02;;;;;;;12.18;5.72;;;;;;;12.20;60.58;101106.22;5031181;27;104220;-50
2022/04/14 01:01:29;;;;;;;7.72;5.00;;;;;;;12.19;61.05;101101.88;5030324;28;101964;-49
2022/04/14 01:04:00;;;;;;;9.90;5.00;;;;;;;12.19;60.80;101107.31;5025343;28;102823;-48
2022/04/14 01:06:27;;;;;;;10.32;5.57;;;;;;;12.19;60.57;101105.41;5033478;27;103906;-49
2022/04/14 01:11:44;;;;;;;6.95;5.07;;;;;;;12.20;60.72;101107.03;5013210;28;102522;-48
2022/04/14 01:14:18;;;;;;;7.10;4.78;;;;;;;12.20;60.59;101104.31;5024506;28;102178;-51
2022/04/14 01:16:45;;;;;;;9.90;5.13;;;;;;;12.20;61.08;101107.03;5033747;28;104047;-47
2022/04/14 01:19:13;;;;;;;8.43;5.13;;;;;;;12.21;61.51;101111.41;5032054;28;102472;-48
2022/04/14 01:21:44;;;;;;;5.68;4.63;;;;;;;12.20;61.12;101117.97;5031379;28;102486;-48
2022/04/14 01:24:13;;;;;;;8.23;5.25;;;;;;;12.19;60.91;101110.88;5034009;27;102291;-48
2022/04/14 01:26:43;;;;;;;6.28;4.40;;;;;;;12.21;60.88;101107.84;5033188;27;103786;-48
2022/04/14 01:29:21;;;;;;;7.43;4.57;;;;;;;12.19;60.72;101116.31;5032254;27;102286;-49
2022/04/14 01:31:48;;;;;;;6.00;4.43;;;;;;;12.19;61.23;101110.88;5013127;28;101990;-48
2022/04/14 01:34:14;;;;;;;5.95;4.15;;;;;;;12.20;61.14;101117.97;5013606;28;102533;-48
2022/04/14 01:37:00;;;;;;;6.43;4.60;;;;;;;12.20;60.78;101119.88;5012160;28;103920;-47
2022/04/14 01:39:29;;;;;;;6.40;4.75;;;;;;;12.19;61.28;101116.31;5014823;28;102582;-48
2022/04/14 01:41:56;;;;;;;;;;;;;;;12.20;61.06;101122.59;5032248;28;102452;-49
2022/04/14 01:44:23;;;;;;;7.00;4.80;;;;;;;12.19;60.82;101121.78;5031457;27;102115;-48
2022/04/14 01:46:49;;;;;;;7.25;4.72;;;;;;;12.19;60.87;101127.25;5016876;27;103907;-51
2022/04/14 01:49:16;;;;;;;6.22;4.65;;;;;;;12.19;61.33;101124.50;5013181;28;101947;-50
2022/04/14 01:51:43;;;;;;;5.45;4.32;;;;;;;12.18;61.07;101117.41;5032796;27;102582;-48
2022/04/14 01:54:11;;;;;;;8.60;4.43;;;;;;;12.19;61.22;101132.69;5032441;27;102199;-48
2022/04/14 01:56:39;;;;;;;5.53;4.20;;;;;;;12.19;61.21;101138.16;5032236;27;103955;-49
2022/04/14 01:59:06;;;;;;;6.45;4.53;;;;;;;12.19;61.05;101132.69;5032849;27;101892;-48
2022/04/14 02:01:33;;;;;;;8.27;4.72;;;;;;;12.19;60.99;101131.88;5027669;27;102587;-50
2022/04/14 02:04:07;;;;;;;5.18;3.70;;;;;;;12.19;61.09;101129.16;5032941;28;102364;-48
2022/04/14 02:06:35;;;;;;;5.87;4.10;;;;;;;12.19;61.19;101132.69;5018489;27;104853;-49
2022/04/14 02:09:03;;;;;;;6.50;4.05;;;;;;;12.20;61.38;101141.69;5031187;28;102286;-48
2022/04/14 02:11:29;;;;;;;7.18;4.40;;;;;;;12.19;61.11;101135.44;5030283;28;102058;-50
2022/04/14 02:13:58;;;;;;;5.30;4.07;;;;;;;12.19;61.15;101132.69;5031867;27;102080;-48
2022/04/14 02:16:24;;;;;;;6.80;4.05;;;;;;;12.21;61.16;101132.41;5030447;27;104308;-49
2022/04/14 02:18:51;;;;;;;7.38;4.20;;;;;;;12.21;61.33;101135.16;5032469;27;101957;-48
2022/04/14 02:21:17;;;;;;;6.45;3.97;;;;;;;12.20;61.32;101142.50;5029505;27;102213;-48
2022/04/14 02:23:44;;;;;;;5.50;4.03;;;;;;;12.21;61.15;101144.16;5012626;28;102557;-48
2022/04/14 02:26:11;;;;;;;7.18;3.88;;;;;;;12.19;61.28;101143.63;5027328;28;103903;-47
2022/04/14 02:28:38;;;;;;;6.68;4.30;;;;;;;12.21;61.31;101143.34;5031999;27;102507;-49
2022/04/14 02:31:06;;;;;;;5.85;3.75;;;;;;;12.20;61.46;101147.97;5029981;27;101978;-48
2022/04/14 02:33:33;;;;;;;6.28;4.10;;;;;;;12.20;61.31;101147.97;5032475;28;102102;-47
2022/04/14 02:36:01;;;;;;;6.65;4.18;;;;;;;12.19;61.22;101146.34;5030935;27;104073;-49
2022/04/14 02:38:27;;;;;;;9.35;4.32;;;;;;;12.19;61.39;101142.78;5031626;27;101864;-48
2022/04/14 02:40:54;;;;;;;5.53;3.80;;;;;;;12.18;61.03;101147.41;5012458;28;102386;-47
2022/04/14 02:43:21;;;;;;;6.57;3.88;;;;;;;12.19;61.45;101146.34;5012844;28;102698;-48
2022/04/14 02:45:48;;;;;;;5.60;3.35;;;;;;;12.19;61.40;101143.63;5014690;28;103999;-47
2022/04/14 02:48:15;;;;;;;5.72;3.60;;;;;;;12.18;60.99;101150.13;5027545;27;102469;-47
2022/04/14 02:50:43;;;;;;;6.55;4.13;;;;;;;12.19;61.10;101149.06;5031821;28;102039;-48
2022/04/14 02:53:10;;;;;;;5.82;3.45;;;;;;;12.18;61.11;101152.88;5032776;27;102189;-47
2022/04/14 02:55:37;;;;;;;5.82;4.10;;;;;;;12.19;60.93;101145.53;5030208;27;103888;-48
2022/04/14 02:58:04;;;;;;;6.80;3.95;;;;;;;12.18;61.05;101155.59;5031982;27;102442;-51
2022/04/14 03:00:31;;;;;;;7.57;4.55;;;;;;;12.19;61.06;101161.91;5032149;28;101973;-48
2022/04/14 03:03:00;;;;;;;10.20;4.85;;;;;;;12.19;61.20;101159.97;5030679;28;102329;-52
2022/04/14 03:05:28;;;;;;;6.18;4.07;;;;;;;12.19;61.12;101161.91;5030737;27;103941;-48
2022/04/14 03:07:56;;;;;;;6.32;4.30;;;;;;;12.19;61.55;101164.63;5032483;27;102402;-48
2022/04/14 03:10:25;;;;;;;7.53;4.00;;;;;;;12.19;60.97;101176.34;5031812;27;101906;-47
2022/04/14 03:12:51;;;;;;;6.93;4.07;;;;;;;12.19;61.54;101175.53;5021205;27;102181;-49
2022/04/14 03:15:19;;;;;;;7.70;4.60;;;;;;;12.19;61.29;101181.81;5012306;28;103886;-48
2022/04/14 03:17:54;;;;;;;5.57;4.10;;;;;;;12.20;61.42;101186.16;5011897;28;102199;-50
2022/04/14 03:20:21;;;;;;;5.30;3.95;;;;;;;12.19;61.51;101181.81;5010892;28;101875;-48
2022/04/14 03:22:49;;;;;;;6.60;4.25;;;;;;;12.19;61.26;101198.19;5024850;28;102589;-48
2022/04/14 03:25:15;;;;;;;5.90;3.70;;;;;;;12.19;61.42;101191.91;5031051;27;103881;-48
2022/04/14 03:27:42;;;;;;;6.22;3.83;;;;;;;12.19;61.05;101203.66;5030431;27;101993;-47
2022/04/14 03:30:13;;;;;;;6.57;3.83;;;;;;;12.18;61.05;101188.34;5029396;28;102326;-48
2022/04/14 03:32:42;;;;;;;5.82;3.40;;;;;;;12.19;61.28;101200.91;5030799;27;102679;-47
2022/04/14 03:35:10;;;;;;;5.40;3.65;;;;;;;12.20;61.37;101194.34;5030784;27;103933;-47
2022/04/14 03:37:36;;;;;;;4.75;3.13;;;;;;;12.18;61.20;101199.25;5031793;27;101945;-47
2022/04/14 03:40:05;;;;;;;5.63;3.40;;;;;;;12.19;61.40;101200.09;5028966;27;102455;-47
2022/04/14 03:42:32;;;;;;;;;;;;;;;12.19;61.37;101209.09;5024923;28;102317;-49
2022/04/14 03:44:58;;;;;;;5.63;3.95;;;;;;;12.19;61.15;101209.09;5015191;28;103880;-50
2022/04/14 03:47:25;;;;;;;7.00;4.03;;;;;;;12.19;61.42;101205.56;5024701;27;102254;-47
2022/04/14 03:49:52;;;;;;;5.82;4.00;;;;;;;12.18;61.33;101207.44;5024834;28;101995;-48
2022/04/14 03:52:22;;;;;;;6.65;3.67;;;;;;;12.18;61.77;101212.91;5032133;27;102094;-48
2022/04/14 03:54:48;;;;;;;5.35;3.33;;;;;;;12.19;61.40;101225.47;5027670;27;103889;-48
2022/04/14 03:57:16;;;;;;;4.75;3.63;;;;;;;12.19;61.18;101225.47;5031427;27;102090;-48
2022/04/14 03:59:43;;;;;;;5.20;3.65;;;;;;;12.19;61.17;101230.13;5026968;27;102727;-48
2022/04/14 04:02:09;;;;;;;6.55;3.92;;;;;;;12.18;61.39;101234.72;5030113;27;102234;-48
2022/04/14 04:04:36;;;;;;;6.03;3.33;;;;;;;12.19;61.42;101239.13;5029889;28;103866;-48
2022/04/14 04:07:04;;;;;;;6.80;3.80;;;;;;;12.20;61.62;101239.94;5026815;27;102216;-49
2022/04/14 04:09:33;;;;;;;6.88;4.20;;;;;;;12.18;61.33;101248.38;5019337;28;102240;-48
2022/04/14 04:12:00;;;;;;;;;;;;;;;12.19;61.38;101244.56;5032750;28;102383;-49
2022/04/14 04:14:29;;;;;;;7.18;4.15;;;;;;;12.18;61.66;101245.63;5030098;27;103860;-48
2022/04/14 04:16:56;;;;;;;5.25;3.80;;;;;;;12.19;61.50;101241.84;5027500;27;102452;-48
2022/04/14 04:19:23;;;;;;;6.60;3.65;;;;;;;12.19;61.32;101247.31;5011212;28;102391;-49
2022/04/14 04:21:50;;;;;;;4.57;3.35;;;;;;;12.18;61.55;101245.63;5027910;27;102246;-52
2022/04/14 04:24:16;;;;;;;5.88;3.50;;;;;;;12.18;61.50;101251.09;5030555;27;103713;-48
2022/04/14 04:26:43;;;;;;;5.45;3.33;;;;;;;12.18;61.35;101256.56;5031068;27;101786;-47
2022/04/14 04:29:10;;;;;;;5.07;3.58;;;;;;;12.18;61.38;101244.81;5016832;27;102278;-47
2022/04/14 04:31:38;;;;;;;5.25;3.65;;;;;;;12.17;61.15;101244.00;5027450;28;102638;-47
2022/04/14 04:34:05;;;;;;;5.77;3.70;;;;;;;12.16;61.31;101231.47;5032954;27;103810;-49
2022/04/14 04:36:33;;;;;;;4.78;3.50;;;;;;;12.17;61.42;101238.56;5028610;28;102850;-49
2022/04/14 04:39:01;;;;;;;5.43;3.65;;;;;;;12.17;61.40;101240.47;5034042;27;101838;-48
2022/04/14 04:41:28;;;;;;;5.78;3.55;;;;;;;12.17;61.36;101244.00;5029708;27;102098;-49
2022/04/14 04:43:55;;;;;;;7.55;3.63;;;;;;;12.16;61.45;101253.28;5013430;28;103888;-48
2022/04/14 04:46:22;;;;;;;4.63;3.28;;;;;;;12.18;61.43;101259.28;5022239;27;102463;-48
2022/04/14 04:48:50;;;;;;;5.35;3.40;;;;;;;12.18;61.44;101267.47;5013124;28;102317;-47
2022/04/14 04:51:16;;;;;;;5.13;3.35;;;;;;;12.18;61.51;101259.28;5024698;28;102434;-47
2022/04/14 04:53:43;;;;;;;4.32;3.47;;;;;;;12.17;61.10;101254.91;5032666;27;103880;-47
2022/04/14 04:56:09;;;;;;;4.75;3.40;;;;;;;12.18;61.60;101251.09;5034349;27;102273;-48
2022/04/14 04:58:36;;;;;;;4.82;2.80;;;;;;;12.19;61.43;101249.22;5033441;27;102638;-48
2022/04/14 05:01:03;;;;;;;6.55;3.85;;;;;;;12.19;61.41;101257.41;5027256;27;102262;-47
2022/04/14 05:03:31;;;;;;;5.40;3.63;;;;;;;12.18;61.73;101256.56;5032578;27;103868;-47
2022/04/14 05:05:58;;;;;;;3.85;3.22;;;;;;;12.20;61.46;101259.03;5034616;27;102416;-48
2022/04/14 05:08:25;;;;;;;6.35;3.65;;;;;;;12.18;61.72;101262.00;5033114;27;101926;-47
2022/04/14 05:10:51;;;;;;;5.22;3.75;;;;;;;12.18;61.65;101264.75;5033461;27;102461;-49
2022/04/14 05:13:18;;;;;;;6.18;3.97;;;;;;;12.18;61.53;101267.47;5033211;27;103875;-49
2022/04/14 05:15:45;;;;;;;5.30;3.97;;;;;;;12.19;61.53;101257.41;5031621;27;101962;-48
2022/04/14 05:18:12;;;;;;;6.22;4.05;;;;;;;12.18;61.64;101267.47;5031107;27;101947;-49
2022/04/14 05:20:42;;;;;;;7.00;3.97;;;;;;;12.19;61.67;101266.41;5034740;27;102510;-49
2022/04/14 05:23:10;;;;;;;4.85;3.83;;;;;;;12.19;61.28;101263.69;5032685;28;103773;-48
2022/04/14 05:25:38;;;;;;;5.78;3.58;;;;;;;12.18;61.42;101267.47;5033635;28;102446;-48
2022/04/14 05:28:05;;;;;;;77.60;72.30;;;;;;;12.20;61.57;101269.94;5030710;28;102397;-48
2022/04/14 05:30:32;;;;;;;5.80;3.33;;;;;;;12.19;61.80;101271.88;5032654;27;102499;-49
2022/04/14 05:32:59;;;;;;;5.97;3.88;;;;;;;12.19;61.53;101257.41;5032643;27;103967;-47
2022/04/14 05:35:26;;;;;;;5.68;3.33;;;;;;;12.19;61.41;101257.41;5029657;27;101808;-48
2022/04/14 05:37:52;;;;;;;5.53;4.05;;;;;;;12.18;61.53;101262.00;5028435;27;102586;-50
2022/04/14 05:40:20;;;;;;;4.30;3.40;;;;;;;12.19;61.60;101257.41;5053954;27;102640;-47
2022/04/14 05:42:47;;;;;;;4.43;3.80;;;;;;;12.20;61.49;101259.03;5037668;27;104212;-49
2022/04/14 05:45:14;;;;;;;7.25;3.67;;;;;;;12.19;61.27;101258.22;5032741;27;101782;-48
2022/04/14 05:47:40;;;;;;;5.22;3.42;;;;;;;12.19;60.90;101273.78;5032448;27;101930;-49
2022/04/14 05:50:07;;;;;;;5.85;3.90;;;;;;;12.20;61.41;101276.22;5026691;27;102370;-48
2022/04/14 05:52:35;;;;;;;7.10;4.00;;;;;;;12.18;61.40;101275.66;5032294;27;104093;-49
2022/04/14 05:55:05;;;;;;;5.22;3.80;;;;;;;12.20;61.52;101273.50;5028857;27;101974;-50
2022/04/14 05:57:32;;;;;;;6.85;4.10;;;;;;;12.20;61.52;101276.22;5022944;27;102125;-47
2022/04/14 06:00:00;;;;;;;5.70;4.00;;;;;;;12.20;61.25;101278.13;5024429;27;102791;-47
2022/04/14 06:02:26;;;;;;;4.65;3.75;;;;;;;12.20;61.14;101281.69;5031514;27;103900;-47
2022/04/14 06:04:53;;;;;;;6.53;3.92;;;;;;;12.21;61.28;101282.50;5027358;27;102774;-47
2022/04/14 06:07:19;;;;;;;5.50;3.90;;;;;;;12.22;61.47;101284.13;5029983;27;102682;-47
2022/04/14 06:09:46;;;;;;;5.28;3.85;;;;;;;12.22;61.28;101282.22;5029369;27;102132;-48
2022/04/14 06:12:18;;;;;;;4.93;3.90;;;;;;;12.23;61.57;101291.25;5027454;27;103947;-51
2022/04/14 06:14:49;;;;;;;6.50;4.13;;;;;;;12.23;61.53;101285.78;5028562;27;103921;-47
2022/04/14 06:17:16;;;;;;;5.57;3.63;;;;;;;12.23;61.38;101285.78;5021212;27;102886;-48
2022/04/14 06:19:43;;;;;;;6.18;3.85;;;;;;;12.23;61.48;101292.06;5028412;27;102145;-48
2022/04/14 06:22:10;;;;;;;5.78;3.80;;;;;;;12.24;61.47;101293.69;5019871;28;105536;-47
2022/04/14 06:24:36;;;;;;;6.07;3.95;;;;;;;12.25;61.45;101295.31;5028189;27;102312;-49
2022/04/14 06:27:08;;;;;;;5.90;3.75;;;;;;;12.25;61.53;101300.78;5031930;27;102084;-47
2022/04/14 06:29:34;;;;;;;;;;;;;;;12.26;61.47;101302.44;5032080;27;102449;-48
2022/04/14 06:32:02;;;;;;;6.03;3.67;;;;;;;12.27;61.26;101303.25;5032324;28;103968;-48
2022/04/14 06:34:29;;;;;;;6.32;4.13;;;;;;;12.27;61.33;101304.06;5016871;27;102385;-48
2022/04/14 06:36:55;;;;;;;7.97;4.93;;;;;;;12.29;61.33;101302.97;5030830;27;102374;-47
2022/04/14 06:39:24;;;;;;;;;;;;;;;12.30;61.41;101324.56;5019349;28;102671;-47
2022/04/14 06:41:51;;;;;;;8.32;5.03;;;;;;;12.29;61.39;101305.72;5030249;27;103985;-47
2022/04/14 06:44:18;;;;;;;10.55;5.28;;;;;;;12.31;61.39;101317.19;5011926;28;102511;-46
2022/04/14 06:46:46;;;;;;;10.27;4.53;;;;;;;12.30;61.31;101301.88;5027367;28;102455;-47
2022/04/14 06:49:14;;;;;;;9.30;5.30;;;;;;;12.31;61.37;101309.00;5020271;27;102267;-48
2022/04/14 06:51:41;;;;;;;8.75;5.05;;;;;;;12.31;61.45;101309.00;5022292;27;103885;-47
2022/04/14 06:54:07;;;;;;;6.32;4.18;;;;;;;12.33;61.22;101317.72;5026820;28;102569;-49
2022/04/14 06:56:34;;;;;;;6.10;4.18;;;;;;;12.33;61.51;101312.25;5031069;27;102029;-47
2022/04/14 06:59:00;;;;;;;11.38;5.38;;;;;;;12.33;61.29;101315.00;5030534;28;102412;-48
2022/04/14 07:01:27;;;;;;;7.15;4.50;;;;;;;12.35;61.29;101315.56;5015558;27;104050;-48
2022/04/14 07:03:55;;;;;;;7.47;4.72;;;;;;;12.35;61.41;101315.56;5011199;28;102130;-50
2022/04/14 07:06:31;;;;;;;6.40;3.85;;;;;;;12.36;61.36;101318.00;5018587;28;102716;-47
2022/04/14 07:08:58;;;;;;;5.78;3.85;;;;;;;12.37;61.14;101318.81;5029105;28;102057;-48
2022/04/14 07:11:24;;;;;;;4.55;3.88;;;;;;;12.38;61.53;101329.50;5025216;27;104500;-48
2022/04/14 07:13:51;;;;;;;8.75;4.82;;;;;;;12.39;61.44;101322.13;5026223;28;102453;-48
2022/04/14 07:16:17;;;;;;;4.60;3.75;;;;;;;12.40;61.60;101321.03;5031200;27;102052;-48
2022/04/14 07:18:44;;;;;;;5.93;3.85;;;;;;;12.40;61.46;101324.56;5022906;28;102247;-49
2022/04/14 07:21:11;;;;;;;5.45;3.97;;;;;;;12.42;61.30;101324.31;5012948;28;103711;-48
2022/04/14 07:23:47;;;;;;;4.68;3.65;;;;;;;12.42;61.55;101327.03;5013099;27;101958;-47
2022/04/14 07:26:13;;;;;;;6.72;4.68;;;;;;;12.42;61.24;101324.31;5019745;28;102566;-48
2022/04/14 07:28:40;;;;;;;4.55;3.80;;;;;;;12.43;61.39;101328.69;5029567;27;102234;-47
2022/04/14 07:31:06;;;;;;;5.47;4.28;;;;;;;12.43;61.37;101328.69;5031036;27;104061;-48
2022/04/14 07:33:36;;;;;;;7.30;4.10;;;;;;;12.45;61.35;101331.97;5028920;27;102419;-48
2022/04/14 07:36:03;;;;;;;6.00;3.78;;;;;;;12.46;61.33;101344.53;5029523;27;102032;-49
2022/04/14 07:38:31;;;;;;;7.30;4.40;;;;;;;12.48;61.31;101347.81;5025880;27;102889;-48
2022/04/14 07:41:00;;;;;;;6.97;4.50;;;;;;;12.47;61.39;101341.50;5024842;28;103919;-49
2022/04/14 07:43:28;;;;;;;7.13;3.92;;;;;;;12.50;61.28;101351.09;5024232;27;102788;-50
2022/04/14 07:45:55;;;;;;;7.47;4.93;;;;;;;12.50;61.21;101334.72;5024939;28;102596;-48
2022/04/14 07:48:22;;;;;;;7.13;4.45;;;;;;;12.52;61.36;101342.66;5028887;27;102721;-47
2022/04/14 07:50:48;;;;;;;5.82;4.05;;;;;;;12.52;61.32;101348.91;5030422;27;103848;-47
2022/04/14 07:53:15;;;;;;;5.93;4.50;;;;;;;12.54;61.37;101351.38;5029882;27;102417;-47
2022/04/14 07:55:43;;;;;;;5.50;4.07;;;;;;;12.54;61.49;101346.72;5029919;27;102365;-47
2022/04/14 07:58:11;;;;;;;6.45;4.60;;;;;;;12.56;61.44;101357.41;5016033;27;102118;-50
2022/04/14 08:00:39;;;;;;;6.20;4.45;;;;;;;12.56;61.39;101362.84;5023037;28;104042;-47
2022/04/14 08:03:07;;;;;;;6.00;4.15;;;;;;;12.57;61.27;101350.84;5014298;28;101818;-47
2022/04/14 08:05:35;;;;;;;6.88;4.90;;;;;;;12.58;61.23;101360.66;5026473;27;101921;-47
2022/04/14 08:08:06;;;;;;;6.50;4.40;;;;;;;12.58;61.08;101364.22;5035541;27;102473;-47
2022/04/14 08:10:34;;;;;;;6.57;4.88;;;;;;;12.59;61.80;101354.13;5025792;27;103925;-47
2022/04/14 08:13:01;;;;;;;7.50;4.97;;;;;;;12.59;61.34;101348.66;5020603;27;102152;-48
2022/04/14 08:15:31;;;;;;;8.82;4.72;;;;;;;12.59;61.38;101346.75;5029348;27;102419;-48
2022/04/14 08:17:58;;;;;;;9.43;5.25;;;;;;;12.61;61.28;101349.19;5030659;27;102144;-46
2022/04/14 08:20:25;;;;;;;17.60;5.15;;;;;;;12.64;61.65;101352.22;5031894;28;104024;-47
2022/04/14 08:22:56;;;;;;;14.52;4.97;;;;;;;12.63;61.34;101350.59;5030441;27;102119;-50
2022/04/14 08:25:24;;;;;;;14.63;5.20;;;;;;;12.64;61.38;101349.47;5025758;28;102815;-48
2022/04/14 08:28:07;;;;;;;11.52;4.97;;;;;;;12.65;61.54;101353.03;5034202;27;102525;-51
2022/04/14 08:30:36;;;;;;;10.63;4.88;;;;;;;12.64;61.16;101352.22;5033547;27;104046;-51
2022/04/14 08:33:06;;;;;;;8.70;4.47;;;;;;;12.66;61.40;101347.31;5030717;27;102169;-48
2022/04/14 08:35:33;;;;;;;8.02;5.18;;;;;;;12.67;61.36;101351.69;5029476;27;104181;-47
2022/04/14 08:38:02;;;;;;;8.45;4.97;;;;;;;12.68;61.05;101361.50;5030960;27;102669;-47
2022/04/14 08:40:33;;;;;;;7.20;5.07;;;;;;;12.69;61.25;101351.41;5028339;28;103532;-47
2022/04/14 08:43:03;;;;;;;8.65;4.68;;;;;;;12.70;61.45;101361.25;5034243;27;101976;-47
2022/04/14 08:45:31;;;;;;;7.47;5.03;;;;;;;12.71;61.37;101357.44;5028644;28;103496;-47
2022/04/14 08:48:00;;;;;;;;;;;;;;;12.71;61.20;101357.44;5024222;27;102791;-48
2022/04/14 08:50:27;;;;;;;9.18;4.38;;;;;;;12.71;61.32;101358.25;5018832;28;104090;-49
2022/04/14 08:52:54;;;;;;;6.95;4.47;;;;;;;12.72;61.42;101361.78;5034303;28;102237;-47
2022/04/14 08:55:21;;;;;;;8.68;5.43;;;;;;;12.73;61.49;101355.25;5032391;27;102521;-47
2022/04/14 08:57:50;;;;;;;8.75;4.93;;;;;;;12.73;61.44;101347.88;5034275;28;102225;-47
2022/04/14 09:00:18;;;;;;;7.45;4.65;;;;;;;12.75;61.52;101358.53;5015253;27;103955;-47
2022/04/14 09:02:46;;;;;;;7.53;4.88;;;;;;;12.75;61.42;101353.88;5014271;28;102241;-46
2022/04/14 09:05:17;;;;;;;7.78;5.00;;;;;;;12.75;61.64;101359.34;5013797;28;102464;-48
2022/04/14 09:08:02;;;;;;;6.32;4.95;;;;;;;12.77;61.34;101350.91;5032591;27;102611;-48
2022/04/14 09:10:29;;;;;;;8.65;4.50;;;;;;;12.77;61.51;101355.53;5031718;27;104163;-47
2022/04/14 09:12:57;;;;;;;6.22;4.97;;;;;;;12.77;61.69;101350.91;5026671;27;102285;-47
2022/04/14 09:15:23;;;;;;;7.68;4.90;;;;;;;12.78;61.37;101355.25;5031094;27;101979;-46
2022/04/14 09:17:50;;;;;;;6.05;4.68;;;;;;;12.78;61.29;101351.72;5034728;27;102203;-48
2022/04/14 09:20:33;;;;;;;6.85;4.85;;;;;;;12.78;61.50;101347.06;5026645;27;103921;-48
2022/04/14 09:23:20;;;;;;;12.10;4.50;;;;;;;12.87;61.34;101341.88;5024461;28;102543;-47
2022/04/14 09:25:50;;;;;;;10.05;3.65;;;;;;;12.94;60.98;101339.69;5030540;28;102392;-49
2022/04/14 09:28:18;;;;;;;27.30;5.75;;;;;;;13.01;60.50;101348.44;5031450;27;102641;-48
2022/04/14 09:30:59;;;;;;;13.27;3.97;;;;;;;13.02;60.40;101346.53;5022620;27;103814;-53
2022/04/14 09:33:26;;;;;;;111.32;8.30;;;;;;;13.07;60.63;101349.28;5027612;28;102429;-50
2022/04/14 09:36:09;;;;;;;17.45;3.75;;;;;;;13.05;60.40;101354.19;5030693;27;102101;-50
2022/04/14 09:38:52;;;;;;;29.73;4.18;;;;;;;13.04;60.46;101345.16;5025016;27;102346;-50
2022/04/14 09:41:32;;;;;;;17.55;3.47;;;;;;;13.04;60.70;101347.09;5027814;27;104278;-50
2022/04/14 09:44:01;;;;;;;8.93;4.00;;;;;;;13.03;60.65;101346.28;5026636;28;102162;-51
2022/04/14 09:46:29;;;;;;;7.93;3.33;;;;;;;13.03;60.55;101353.66;5026280;28;102558;-51
2022/04/14 09:49:07;;;;;;;14.50;4.05;;;;;;;13.01;60.82;101342.97;5029264;27;102253;-50
2022/04/14 09:51:36;;;;;;;15.55;3.88;;;;;;;13.02;60.85;101355.56;5018187;27;103911;-50
2022/04/14 09:54:04;;;;;;;14.93;3.85;;;;;;;13.02;60.80;101350.09;5018875;28;101926;-50
2022/04/14 09:56:39;;;;;;;11.43;4.43;;;;;;;13.01;60.79;101351.19;5030612;27;102089;-50
2022/04/14 09:59:10;;;;;;;13.65;4.22;;;;;;;13.00;60.98;101355.00;5026355;28;102669;-50
2022/04/14 10:01:38;;;;;;;10.38;4.22;;;;;;;13.00;60.74;101355.00;5027126;28;104108;-50
2022/04/14 10:04:05;;;;;;;8.32;4.10;;;;;;;12.99;61.07;101361.56;5021672;28;102452;-50
2022/04/14 10:06:32;;;;;;;11.57;4.43;;;;;;;12.98;61.05;101349.81;5025061;28;102268;-50
2022/04/14 10:09:00;;;;;;;9.10;4.43;;;;;;;12.99;60.94;101347.91;5034020;27;102512;-50
2022/04/14 10:11:30;;;;;;;13.38;4.03;;;;;;;12.98;60.94;101357.19;5031957;28;103796;-50
2022/04/14 10:14:10;;;;;;;8.45;4.22;;;;;;;12.98;61.06;101352.56;5030364;27;102400;-50
2022/04/14 10:16:39;;;;;;;7.30;4.30;;;;;;;12.97;60.80;101344.63;5032128;28;102438;-50
2022/04/14 10:19:09;;;;;;;11.55;4.15;;;;;;;12.98;60.99;101346.25;5033474;27;102590;-50
2022/04/14 10:21:39;;;;;;;12.13;4.35;;;;;;;12.97;61.16;101339.97;5031905;27;103884;-50
2022/04/14 10:24:11;;;;;;;8.43;4.00;;;;;;;12.97;61.11;101355.53;5031680;27;102016;-50
2022/04/14 10:26:39;;;;;;;8.73;3.88;;;;;;;12.97;61.19;101355.53;5030969;27;101994;-50
2022/04/14 10:29:06;;;;;;;6.57;3.90;;;;;;;12.96;60.96;101359.38;5032003;27;102567;-50
2022/04/14 10:31:35;;;;;;;8.73;3.90;;;;;;;12.95;61.15;101346.81;5032038;27;103947;-50
2022/04/14 10:34:07;;;;;;;;;;;;;;;12.95;61.26;101352.28;5030855;27;102265;-50
2022/04/14 10:36:37;;;;;;;5.03;4.13;;;;;;;12.94;61.00;101364.28;5029899;27;102420;-49
2022/04/14 10:39:04;;;;;;;4.60;3.35;;;;;;;12.93;61.04;101349.81;5026192;28;104524;-50
2022/04/14 10:41:38;;;;;;;7.35;5.07;;;;;;;12.95;61.05;101353.09;5029502;27;103884;-49
2022/04/14 10:44:06;;;;;;;16.85;8.10;;;;;;;12.95;61.14;101358.56;5022369;27;102267;-50
2022/04/14 10:46:40;;;;;;;11.30;6.25;;;;;;;12.94;61.12;101358.81;5022267;27;103293;-50
2022/04/14 10:49:11;;;;;;;11.77;6.03;;;;;;;12.94;61.05;101350.63;5022307;28;103007;-50
2022/04/14 10:51:38;;;;;;;9.55;5.15;;;;;;;12.93;61.15;101349.81;5019882;28;103857;-50
2022/04/14 10:54:06;;;;;;;8.82;4.45;;;;;;;12.93;61.03;101354.44;5016588;28;102596;-50
2022/04/14 10:56:49;;;;;;;10.32;5.05;;;;;;;12.93;61.35;101344.34;5034594;27;102089;-50
2022/04/14 10:59:17;;;;;;;7.20;4.40;;;;;;;12.92;61.14;101341.91;5022815;27;102040;-50
2022/04/14 11:01:59;;;;;;;8.82;4.90;;;;;;;12.92;61.00;101353.63;5025514;27;103576;-50
2022/04/14 11:04:30;;;;;;;6.32;4.35;;;;;;;12.92;61.01;101358.28;5030279;27;102455;-50
2022/04/14 11:07:01;;;;;;;7.38;4.30;;;;;;;12.93;61.18;101365.38;5011794;28;102387;-50
2022/04/14 11:09:55;;;;;;;7.85;4.32;;;;;;;12.92;61.27;101363.75;5014837;28;102678;-50
2022/04/14 11:12:29;;;;;;;7.90;4.40;;;;;;;12.92;61.05;101372.75;5022563;28;103918;-50
2022/04/14 11:14:58;;;;;;;8.75;4.40;;;;;;;12.91;61.12;101362.94;5023588;27;102141;-50
2022/04/14 11:17:48;;;;;;;8.40;4.32;;;;;;;12.91;61.06;101376.59;5027989;28;101858;-50
2022/04/14 11:20:15;;;;;;;8.68;4.18;;;;;;;12.90;61.27;101371.38;5032362;27;102401;-50
2022/04/14 11:23:06;;;;;;;7.07;3.92;;;;;;;12.90;61.08;101369.47;5031035;27;104061;-50
2022/04/14 11:25:46;;;;;;;5.68;4.28;;;;;;;12.91;61.05;101375.75;5022911;27;102055;-50
2022/04/14 11:28:34;;;;;;;5.82;3.72;;;;;;;12.90;61.26;101374.94;5029972;28;102530;-50